Time;durP1;ratioP1;P1;durP2;ratioP2;P2;SDS_P1;SDS_P2;PMS_P1;PMS_P2;Temp;Humidity;BMP_temperature;BMP_pressure;BME280_temperature;BME280_humidity;BME280_pressure;Samples;Min_cycle;Max_cycle;Signal;HPM_P1;HPM_P2
2022/09/18 04:30:52;;;;;;;11.95;6.58;;;;;;;8.76;100.00;97940.92;4675087;74;22723;-83
2022/09/18 04:36:54;;;;;;;14.68;6.25;;;;;;;8.69;100.00;97949.08;4587181;75;21847;-83
2022/09/18 04:42:56;;;;;;;12.88;6.08;;;;;;;8.68;100.00;97947.53;4584325;75;21487;-83
2022/09/18 04:48:58;;;;;;;16.05;6.50;;;;;;;8.72;100.00;97953.00;4599861;75;21050;-83
2022/09/18 04:54:59;;;;;;;10.38;5.08;;;;;;;8.71;100.00;97951.42;4585056;75;21505;-83
2022/09/18 05:01:01;;;;;;;9.15;4.87;;;;;;;8.71;100.00;97957.67;4607748;75;21011;-84
2022/09/18 05:07:05;;;;;;;9.28;4.70;;;;;;;8.74;100.00;97959.63;4578737;75;21471;-82
2022/09/18 05:13:09;;;;;;;7.50;4.55;;;;;;;8.80;100.00;97964.89;4600110;75;20970;-83
2022/09/18 05:19:12;;;;;;;11.55;4.50;;;;;;;8.91;100.00;97966.30;4585522;75;21522;-83
2022/09/18 05:25:14;;;;;;;9.78;4.67;;;;;;;8.93;100.00;97970.18;4588818;75;21035;-82
2022/09/18 05:31:16;;;;;;;10.48;4.62;;;;;;;9.01;100.00;97971.75;4590485;75;20992;-82
2022/09/18 05:37:20;;;;;;;10.38;5.28;;;;;;;9.10;100.00;97974.08;4587504;75;21564;-84
2022/09/18 05:43:24;;;;;;;10.63;5.78;;;;;;;9.16;100.00;97966.48;4587605;75;21098;-82
2022/09/18 05:49:27;;;;;;;10.82;5.50;;;;;;;9.23;100.00;97975.27;4586502;75;21486;-82
2022/09/18 05:55:32;;;;;;;10.32;5.25;;;;;;;9.24;100.00;97969.41;4583966;76;21077;-82
2022/09/18 06:01:36;;;;;;;9.88;5.22;;;;;;;9.24;100.00;97968.05;4545123;78;20979;-83
2022/09/18 06:07:44;;;;;;;7.12;4.40;;;;;;;9.35;100.00;97966.09;4619125;76;21626;-82
2022/09/18 06:14:01;;;;;;;8.10;5.15;;;;;;;9.46;100.00;97976.44;4598313;75;20975;-82
2022/09/18 06:20:16;;;;;;;7.80;4.25;;;;;;;9.60;100.00;97978.36;4523754;75;21043;-82
2022/09/18 06:26:18;;;;;;;9.20;4.40;;;;;;;9.65;100.00;97979.94;4209831;83;21115;-82
2022/09/18 06:32:20;;;;;;;7.47;3.77;;;;;;;9.68;100.00;97977.79;4183638;83;21085;-84
2022/09/18 06:38:22;;;;;;;7.37;3.75;;;;;;;9.63;100.00;97986.38;4189683;83;21067;-82
2022/09/18 06:44:25;;;;;;;7.50;3.87;;;;;;;9.64;100.00;97989.29;4166836;83;21037;-82
2022/09/18 06:50:33;;;;;;;6.92;4.15;;;;;;;9.66;100.00;97993.21;4160789;83;21053;-82
2022/09/18 06:56:36;;;;;;;5.12;3.62;;;;;;;9.81;100.00;98000.20;4163135;83;21013;-81
2022/09/18 07:02:40;;;;;;;7.55;3.83;;;;;;;9.90;100.00;98002.55;4172574;83;21009;-82
2022/09/18 07:09:03;;;;;;;7.03;3.02;;;;;;;10.08;100.00;97992.36;4171689;84;21080;-82
2022/09/18 07:15:23;;;;;;;11.12;3.20;;;;;;;10.17;100.00;97997.61;3929948;89;21198;-82
2022/09/18 07:21:26;;;;;;;4.22;2.80;;;;;;;10.22;100.00;98001.31;3966753;85;21596;-82
2022/09/18 07:27:28;;;;;;;5.85;2.80;;;;;;;10.33;100.00;97997.16;4256239;82;21094;-82
2022/09/18 07:40:30;;;;;;;3.55;2.00;;;;;;;10.30;100.00;98004.21;4285195;82;21074;-83
2022/09/18 08:01:32;;;;;;;3.90;1.87;;;;;;;10.47;100.00;98001.20;4117073;85;21070;-82
2022/09/18 08:21:30;;;;;;;3.35;1.72;;;;;;;10.66;100.00;98002.09;3972145;87;21050;-81
2022/09/18 08:35:40;;;;;;;3.55;1.50;;;;;;;10.56;100.00;98007.02;3954961;90;21058;-82
2022/09/18 09:11:39;;;;;;;3.10;1.15;;;;;;;13.52;100.00;98002.79;3682318;96;21192;-83
2022/09/18 09:18:56;;;;;;;2.67;1.05;;;;;;;14.10;100.00;97997.44;3647332;94;21324;-82
2022/09/18 09:32:52;;;;;;;1.55;0.98;;;;;;;12.60;97.48;97993.72;3593514;97;21150;-82
2022/09/18 09:39:49;;;;;;;1.37;0.80;;;;;;;13.90;100.00;97993.11;3715228;94;21730;-83
2022/09/18 10:14:53;;;;;;;1.47;0.68;;;;;;;14.23;94.04;98002.31;3828815;92;21095;-82
2022/09/18 10:29:27;;;;;;;1.62;1.02;;;;;;;15.00;90.68;97991.86;3961469;87;21034;-83
2022/09/18 11:19:50;;;;;;;2.45;1.02;;;;;;;14.01;90.15;98052.27;3784739;92;21026;-85
2022/09/18 11:27:02;;;;;;;1.10;0.85;;;;;;;12.96;89.43;98053.86;3770432;92;21111;-83
2022/09/18 11:41:40;;;;;;;1.00;0.65;;;;;;;12.24;92.16;98048.25;4021165;86;21147;-83
2022/09/18 12:42:38;;;;;;;1.67;1.45;;;;;;;11.52;94.04;98082.75;4045482;84;20192;-83
2022/09/18 12:49:54;;;;;;;2.02;1.30;;;;;;;11.32;94.67;98098.16;4314544;81;21009;-83
2022/09/18 12:57:18;;;;;;;2.92;1.35;;;;;;;11.25;95.82;98101.52;4150673;80;20974;-83
2022/09/18 13:03:58;;;;;;;3.85;1.90;;;;;;;11.21;96.25;98102.92;4068077;85;21099;-84
2022/09/18 13:17:22;;;;;;;2.37;1.35;;;;;;;11.39;97.94;98102.21;4068312;86;21103;-85
2022/09/18 13:23:55;;;;;;;2.37;1.70;;;;;;;11.47;97.96;98120.75;4291745;80;21071;-84
2022/09/18 13:30:40;;;;;;;3.42;1.60;;;;;;;11.29;97.51;98119.48;4299603;81;21065;-84
2022/09/18 13:44:24;;;;;;;4.03;2.02;;;;;;;10.88;98.61;98141.20;3876390;90;21103;-83
2022/09/18 14:05:01;;;;;;;2.58;1.07;;;;;;;10.61;99.69;98165.34;3952313;88;21098;-83
2022/09/18 14:11:23;;;;;;;3.40;1.62;;;;;;;10.52;99.89;98165.73;4035408;84;21089;-83
2022/09/18 14:18:19;;;;;;;2.37;1.75;;;;;;;10.40;100.00;98177.68;4160412;83;22162;-83
2022/09/18 14:39:38;;;;;;;5.92;2.30;;;;;;;10.12;100.00;98185.91;3992014;88;21016;-84
2022/09/18 14:46:03;;;;;;;5.65;2.10;;;;;;;9.96;100.00;98178.67;3985500;88;21661;-83
2022/09/18 15:35:04;;;;;;;7.40;4.10;;;;;;;10.04;100.00;98206.97;4007265;86;21101;-83
2022/09/18 15:42:01;;;;;;;7.00;3.45;;;;;;;10.06;100.00;98212.05;4085518;84;21075;-83
2022/09/18 15:48:33;;;;;;;8.15;4.15;;;;;;;10.03;100.00;98219.67;4118899;84;21057;-83
2022/09/18 15:55:42;;;;;;;9.98;4.42;;;;;;;10.05;100.00;98210.50;4122490;84;21131;-83
2022/09/18 16:02:47;;;;;;;;;;;;;;;;;;;;;
2022/09/18 16:09:03;;;;;;;10.23;4.92;;;;;;;9.98;100.00;98214.00;3908483;89;21114;-83
2022/09/18 16:15:46;;;;;;;9.10;4.97;;;;;;;9.93;100.00;98218.48;4018858;87;21066;-82
2022/09/18 16:22:06;;;;;;;11.97;5.12;;;;;;;9.92;100.00;98216.94;4012313;86;21139;-82
2022/09/18 16:28:48;;;;;;;12.18;6.87;;;;;;;9.89;100.00;98213.61;3831778;90;21061;-83
2022/09/18 16:48:21;;;;;;;14.47;6.58;;;;;;;9.74;100.00;98203.05;3980109;86;21947;-82
2022/09/18 16:54:53;;;;;;;11.40;6.30;;;;;;;9.67;100.00;98203.81;4074660;87;21079;-83
2022/09/18 17:01:14;;;;;;;14.03;5.50;;;;;;;9.60;100.00;98202.41;4016789;84;21029;-82
2022/09/18 17:07:41;;;;;;;13.72;5.87;;;;;;;9.57;100.00;98204.56;4253893;82;21034;-82
2022/09/18 17:20:51;;;;;;;12.47;3.97;;;;;;;9.55;100.00;98218.61;4205009;81;20977;-83
2022/09/18 17:27:03;;;;;;;11.33;4.65;;;;;;;9.51;100.00;98215.67;4270868;81;21046;-83
2022/09/18 17:33:17;;;;;;;8.70;4.72;;;;;;;9.44;100.00;98228.72;4271880;81;20978;-84
2022/09/18 17:39:50;;;;;;;10.13;4.85;;;;;;;9.42;100.00;98236.54;4167442;83;21022;-84
2022/09/18 17:46:11;;;;;;;12.80;4.85;;;;;;;9.39;100.00;98232.42;4268822;81;21471;-83
2022/09/18 17:52:44;;;;;;;11.10;5.25;;;;;;;9.32;100.00;98235.11;4168963;81;20974;-83
2022/09/18 17:59:05;;;;;;;8.75;4.65;;;;;;;9.12;100.00;98240.11;4270086;83;21030;-83
2022/09/18 18:05:38;;;;;;;7.40;4.67;;;;;;;9.00;100.00;98240.45;4350934;81;21492;-83
2022/09/18 18:12:00;;;;;;;11.97;4.92;;;;;;;8.99;100.00;98244.33;4247395;82;21662;-83
2022/09/18 18:18:14;;;;;;;9.10;5.35;;;;;;;8.92;100.00;98241.58;4196865;83;20965;-83
2022/09/18 18:24:44;;;;;;;17.27;5.87;;;;;;;8.81;100.00;98242.09;4236481;83;21051;-83
2022/09/18 18:31:10;;;;;;;14.78;5.60;;;;;;;8.75;100.00;98249.08;4183066;84;21479;-82
2022/09/18 18:37:27;;;;;;;11.65;6.45;;;;;;;8.74;100.00;98244.77;4072893;84;21009;-83
2022/09/18 18:43:47;;;;;;;14.05;6.40;;;;;;;8.61;100.00;98234.55;4268674;81;21490;-82
2022/09/18 18:49:59;;;;;;;12.13;6.08;;;;;;;8.55;100.00;98239.57;4266366;81;20998;-82
2022/09/18 18:56:16;;;;;;;8.03;5.30;;;;;;;8.57;100.00;98234.52;4288929;82;21007;-82
2022/09/18 19:02:35;;;;;;;11.70;5.75;;;;;;;8.49;100.00;98247.91;4290263;82;21582;-83
2022/09/18 19:09:44;;;;;;;15.68;6.62;;;;;;;8.51;100.00;98259.80;4206320;84;21003;-85
2022/09/18 19:16:31;;;;;;;12.60;6.35;;;;;;;8.51;100.00;98243.44;4246170;84;21071;-84
2022/09/18 20:03:15;;;;;;;11.03;5.70;;;;;;;8.11;100.00;98240.76;4021361;88;21072;-83
2022/09/18 20:09:45;;;;;;;10.05;5.72;;;;;;;8.07;100.00;98236.62;4042289;85;21650;-83
2022/09/18 20:16:25;;;;;;;10.05;5.60;;;;;;;7.98;100.00;98238.33;4095209;83;21694;-82
2022/09/18 20:23:14;;;;;;;9.03;5.35;;;;;;;7.91;100.00;98226.55;4261884;83;21046;-83
2022/09/18 20:29:54;;;;;;;10.75;5.50;;;;;;;7.98;100.00;98230.72;4191409;83;21134;-83
2022/09/18 20:36:32;;;;;;;10.20;4.87;;;;;;;7.93;100.00;98221.52;4135348;83;21089;-83
2022/09/18 20:42:53;;;;;;;8.73;5.15;;;;;;;7.90;100.00;98224.42;4087431;85;21066;-83
2022/09/18 20:49:29;;;;;;;8.48;4.58;;;;;;;7.81;100.00;98226.66;3875172;87;21720;-83
2022/09/18 20:55:59;;;;;;;9.28;3.98;;;;;;;7.64;100.00;98227.27;4156773;83;21026;-83
2022/09/18 21:08:48;;;;;;;9.15;4.62;;;;;;;7.40;100.00;98204.66;4292935;80;21557;-83
2022/09/18 21:15:14;;;;;;;6.03;4.17;;;;;;;7.44;100.00;98202.73;3978298;87;21066;-83
2022/09/18 21:21:55;;;;;;;8.43;4.37;;;;;;;7.48;100.00;98195.41;3915865;89;21090;-83
2022/09/18 21:28:44;;;;;;;8.30;3.90;;;;;;;7.47;100.00;98191.70;3806613;90;21779;-83
2022/09/18 21:35:15;;;;;;;7.35;3.90;;;;;;;7.40;100.00;98195.13;4053172;87;21062;-83
2022/09/18 21:41:55;;;;;;;7.60;4.08;;;;;;;7.31;100.00;98188.41;4050742;84;21597;-83
2022/09/18 21:48:12;;;;;;;7.12;3.67;;;;;;;7.29;100.00;98187.98;4184753;83;21028;-83
2022/09/18 21:54:22;;;;;;;8.83;3.80;;;;;;;7.30;100.00;98179.44;4179313;83;21460;-83
2022/09/18 22:00:46;;;;;;;7.83;4.30;;;;;;;7.35;100.00;98170.95;4192746;83;21069;-82
2022/09/18 22:07:26;;;;;;;7.00;3.87;;;;;;;7.32;100.00;98177.70;4108141;84;21548;-83
2022/09/18 22:13:38;;;;;;;8.33;4.13;;;;;;;7.38;100.00;98172.13;4112558;84;21047;-83
2022/09/18 22:20:05;;;;;;;6.35;4.10;;;;;;;7.36;100.00;98167.05;4037635;85;21540;-82
2022/09/18 22:40:36;;;;;;;9.18;3.50;;;;;;;7.39;100.00;98158.14;4071755;85;21530;-84
2022/09/18 22:47:06;;;;;;;6.25;3.30;;;;;;;7.47;100.00;98154.33;4092466;85;21149;-84
2022/09/18 22:53:57;;;;;;;9.18;3.47;;;;;;;7.54;100.00;98154.98;4113817;83;21150;-84
2022/09/18 23:07:33;;;;;;;6.47;3.10;;;;;;;7.72;100.00;98153.98;4150237;83;21098;-84
2022/09/18 23:14:07;;;;;;;5.17;3.35;;;;;;;7.83;100.00;98139.08;4208038;82;22356;-84
2022/09/18 23:20:19;;;;;;;7.50;4.20;;;;;;;7.79;100.00;98129.55;4098058;83;21030;-83
2022/09/18 23:26:41;;;;;;;5.90;4.25;;;;;;;7.77;100.00;98118.80;4211851;82;21595;-83
2022/09/18 23:33:22;;;;;;;8.90;4.05;;;;;;;7.81;100.00;98123.11;4207492;83;21504;-83
2022/09/18 23:39:49;;;;;;;8.45;3.50;;;;;;;7.91;100.00;98121.06;4202445;83;21083;-83
2022/09/18 23:46:46;;;;;;;7.15;3.95;;;;;;;8.00;100.00;98117.42;4181978;83;21044;-83
2022/09/18 23:53:07;;;;;;;7.83;4.10;;;;;;;8.05;100.00;98113.56;4235606;82;21082;-85
2022/09/18 23:59:42;;;;;;;5.58;3.60;;;;;;;7.97;100.00;98113.34;4182655;82;21062;-83
